Time,TemperatureF,DewpointF,PressureIn,WindDirection,WindDirectionDegrees,WindSpeedMPH,WindSpeedGustMPH,Humidity,HourlyPrecipIn,Conditions,Clouds,dailyrainin,SoftwareType,DateUTC
2013-06-05 00:01:00,48.8,-5.4,30.07,West,270,0.2,0.7,1,0.00,,,0.00,WUHU216HW,2013-06-05 04:01:00,
2013-06-05 00:06:00,48.4,-5.7,30.07,WSW,248,0.4,0.4,1,0.00,,,0.00,WUHU216HW,2013-06-05 04:06:00,
2013-06-05 00:11:00,48.1,-5.9,30.07,WSW,248,0.4,1.1,1,0.00,,,0.00,WUHU216HW,2013-06-05 04:11:00,
2013-06-05 00:16:00,47.9,-6.0,30.07,West,270,0.0,1.1,1,0.00,,,0.00,WUHU216HW,2013-06-05 04:16:00,
2013-06-05 00:21:00,47.9,-6.0,30.07,West,270,0.0,1.1,1,0.00,,,0.00,WUHU216HW,2013-06-05 04:21:00,
2013-06-05 00:27:00,47.9,-6.0,30.07,SW,225,0.0,0.4,1,0.00,,,0.00,WUHU216HW,2013-06-05 04:27:00,
2013-06-05 00:32:00,47.7,-6.2,30.07,WSW,248,0.0,0.9,1,0.00,,,0.00,WUHU216HW,2013-06-05 04:32:00,
2013-06-05 00:37:00,47.5,-6.3,30.07,WSW,248,0.0,0.9,1,0.00,,,0.00,WUHU216HW,2013-06-05 04:37:00,
2013-06-05 00:42:00,47.3,-6.5,30.07,WSW,248,0.0,0.0,1,0.00,,,0.00,WUHU216HW,2013-06-05 04:42:00,
2013-06-05 00:47:00,47.2,-6.7,30.07,South,180,0.0,0.0,1,0.00,,,0.00,WUHU216HW,2013-06-05 04:47:00,
2013-06-05 00:52:00,47.0,-6.7,30.07,SW,225,0.0,0.0,1,0.00,,,0.00,WUHU216HW,2013-06-05 04:52:00,
2013-06-05 00:57:00,46.8,-6.9,30.08,SW,225,0.0,0.4,1,0.00,,,0.00,WUHU216HW,2013-06-05 04:57:00,
2013-06-05 01:02:00,46.6,-7.0,30.08,WNW,293,0.7,0.9,1,0.00,,,0.00,WUHU216HW,2013-06-05 05:02:00,
2013-06-05 01:07:00,46.8,-6.9,30.08,WNW,293,0.7,1.1,1,0.00,,,0.00,WUHU216HW,2013-06-05 05:07:00,
2013-06-05 01:12:00,47.0,-6.7,30.07,WNW,293,0.7,1.1,1,0.00,,,0.00,WUHU216HW,2013-06-05 05:12:00,
2013-06-05 01:17:00,47.2,-6.7,30.08,WNW,293,0.9,1.1,1,0.00,,,0.00,WUHU216HW,2013-06-05 05:17:00,
2013-06-05 01:22:00,47.3,-6.5,30.08,WNW,293,1.1,1.1,1,0.00,,,0.00,WUHU216HW,2013-06-05 05:22:00,
2013-06-05 01:27:00,47.5,-6.3,30.08,West,270,0.4,1.1,1,0.00,,,0.00,WUHU216HW,2013-06-05 05:27:00,
2013-06-05 01:32:00,47.5,-6.3,30.08,WSW,248,0.4,1.1,1,0.00,,,0.00,WUHU216HW,2013-06-05 05:32:00,
2013-06-05 01:37:00,47.5,-6.3,30.08,WSW,248,0.2,1.1,1,0.00,,,0.00,WUHU216HW,2013-06-05 05:37:00,
2013-06-05 01:42:00,47.7,-6.2,30.08,WSW,248,1.3,1.3,1,0.00,,,0.00,WUHU216HW,2013-06-05 05:42:00,
2013-06-05 01:47:00,47.7,-6.2,30.08,WSW,248,0.4,1.3,1,0.00,,,0.00,WUHU216HW,2013-06-05 05:47:00,
2013-06-05 01:52:00,47.9,-6.0,30.08,WNW,293,0.0,1.3,1,0.00,,,0.00,WUHU216HW,2013-06-05 05:52:00,
2013-06-05 01:57:00,47.9,-6.0,30.08,WNW,293,0.0,0.4,1,0.00,,,0.00,WUHU216HW,2013-06-05 05:57:00,
2013-06-05 02:02:00,47.9,-6.0,30.08,WNW,293,0.0,0.0,1,0.00,,,0.00,WUHU216HW,2013-06-05 06:02:00,
2013-06-05 02:07:00,47.9,-6.0,30.08,West,270,0.4,0.4,1,0.00,,,0.00,WUHU216HW,2013-06-05 06:07:00,
2013-06-05 02:12:00,48.1,-5.9,30.08,WSW,248,0.4,0.4,1,0.00,,,0.00,WUHU216HW,2013-06-05 06:12:00,
2013-06-05 02:17:00,48.2,-5.8,30.08,West,270,1.1,1.1,1,0.00,,,0.00,WUHU216HW,2013-06-05 06:17:00,
2013-06-05 02:22:00,48.4,-5.7,30.08,West,270,0.2,1.3,1,0.00,,,0.00,WUHU216HW,2013-06-05 06:22:00,
2013-06-05 02:27:00,48.6,-5.5,30.08,WNW,293,0.4,1.8,1,0.00,,,0.00,WUHU216HW,2013-06-05 06:27:00,
2013-06-05 02:32:00,48.8,-5.4,30.08,NW,315,0.4,1.8,1,0.00,,,0.00,WUHU216HW,2013-06-05 06:32:00,
2013-06-05 02:37:00,49.0,-5.2,30.08,NW,315,0.4,1.1,1,0.00,,,0.00,WUHU216HW,2013-06-05 06:37:00,
2013-06-05 02:42:00,48.8,-5.4,30.08,NW,315,0.0,0.9,1,0.00,,,0.00,WUHU216HW,2013-06-05 06:42:00,
2013-06-05 02:47:00,48.8,-5.4,30.08,NW,315,0.0,0.4,1,0.00,,,0.00,WUHU216HW,2013-06-05 06:47:00,
2013-06-05 02:52:00,48.6,-5.5,30.08,NW,315,0.4,0.4,1,0.00,,,0.00,WUHU216HW,2013-06-05 06:52:00,
2013-06-05 02:57:00,48.6,-5.5,30.08,West,270,0.2,0.9,1,0.00,,,0.00,WUHU216HW,2013-06-05 06:57:00,
2013-06-05 03:02:00,48.4,-5.7,30.08,West,270,0.4,0.9,1,0.00,,,0.00,WUHU216HW,2013-06-05 07:02:00,
2013-06-05 03:07:00,48.4,-5.7,30.08,West,270,0.7,0.7,1,0.00,,,0.00,WUHU216HW,2013-06-05 07:07:00,
2013-06-05 03:12:00,48.2,-5.8,30.08,West,270,0.7,0.9,1,0.00,,,0.00,WUHU216HW,2013-06-05 07:12:00,
2013-06-05 03:17:00,48.2,-5.8,30.08,WSW,248,0.0,1.1,1,0.00,,,0.00,WUHU216HW,2013-06-05 07:17:00,
2013-06-05 03:22:00,48.1,-5.9,30.08,WNW,293,0.7,1.1,1,0.00,,,0.00,WUHU216HW,2013-06-05 07:22:00,
2013-06-05 03:27:00,48.1,-5.9,30.08,WNW,293,0.0,0.9,1,0.00,,,0.00,WUHU216HW,2013-06-05 07:27:00,
2013-06-05 03:32:00,47.9,-6.0,30.08,WNW,293,0.0,0.7,1,0.00,,,0.00,WUHU216HW,2013-06-05 07:32:00,
2013-06-05 03:37:00,47.9,-6.0,30.08,WNW,293,0.4,0.4,1,0.00,,,0.00,WUHU216HW,2013-06-05 07:37:00,
2013-06-05 03:42:00,47.9,-6.0,30.08,WNW,293,0.4,0.4,1,0.00,,,0.00,WUHU216HW,2013-06-05 07:42:00,
2013-06-05 03:47:00,47.9,-6.0,30.08,WNW,293,0.4,0.7,1,0.00,,,0.00,WUHU216HW,2013-06-05 07:47:00,
2013-06-05 03:52:00,47.9,-6.0,30.08,WNW,293,0.4,0.7,1,0.00,,,0.00,WUHU216HW,2013-06-05 07:52:00,
2013-06-05 03:57:00,47.9,-6.0,30.08,WNW,293,0.4,0.7,1,0.00,,,0.00,WUHU216HW,2013-06-05 07:57:00,
2013-06-05 04:02:00,47.9,-6.0,30.08,West,270,0.4,0.7,1,0.00,,,0.00,WUHU216HW,2013-06-05 08:02:00,
2013-06-05 04:07:00,47.9,-6.0,30.09,West,270,0.4,0.9,1,0.00,,,0.00,WUHU216HW,2013-06-05 08:07:00,
2013-06-05 04:12:00,47.7,-6.2,30.09,West,270,1.1,1.1,1,0.00,,,0.00,WUHU216HW,2013-06-05 08:12:00,
2013-06-05 04:17:00,47.5,-6.3,30.09,West,270,0.4,1.1,1,0.00,,,0.00,WUHU216HW,2013-06-05 08:17:00,
2013-06-05 04:22:00,47.5,-6.3,30.09,WNW,293,0.4,1.1,1,0.00,,,0.00,WUHU216HW,2013-06-05 08:22:00,
2013-06-05 04:27:00,47.3,-6.5,30.10,West,270,0.4,1.1,1,0.00,,,0.00,WUHU216HW,2013-06-05 08:27:00,
2013-06-05 04:32:00,47.2,-6.7,30.10,West,270,0.4,1.1,1,0.00,,,0.00,WUHU216HW,2013-06-05 08:32:00,
2013-06-05 04:37:00,47.0,-6.7,30.10,West,270,0.0,0.4,1,0.00,,,0.00,WUHU216HW,2013-06-05 08:37:00,
2013-06-05 04:42:00,46.8,-6.9,30.10,West,270,0.0,0.4,1,0.00,,,0.00,WUHU216HW,2013-06-05 08:42:00,
2013-06-05 04:47:00,46.4,-7.2,30.10,West,270,0.7,0.7,1,0.00,,,0.00,WUHU216HW,2013-06-05 08:47:00,
2013-06-05 04:52:00,46.3,-7.4,30.10,West,270,0.4,0.9,1,0.00,,,0.00,WUHU216HW,2013-06-05 08:52:00,
2013-06-05 04:57:00,46.3,-7.4,30.11,WNW,293,0.9,1.3,1,0.00,,,0.00,WUHU216HW,2013-06-05 08:57:00,
2013-06-05 05:02:00,46.1,-7.5,30.11,WNW,293,0.9,1.3,1,0.00,,,0.00,WUHU216HW,2013-06-05 09:02:00,
2013-06-05 05:07:00,46.1,-7.5,30.11,WNW,293,0.0,1.1,1,0.00,,,0.00,WUHU216HW,2013-06-05 09:07:00,
2013-06-05 05:12:00,46.1,-7.5,30.11,WSW,248,0.2,0.9,1,0.00,,,0.00,WUHU216HW,2013-06-05 09:12:00,
2013-06-05 05:17:00,46.1,-7.5,30.11,WNW,293,0.4,0.7,1,0.00,,,0.00,WUHU216HW,2013-06-05 09:17:00,
2013-06-05 05:22:00,46.1,-7.5,30.11,WNW,293,0.4,0.9,1,0.00,,,0.00,WUHU216HW,2013-06-05 09:22:00,
2013-06-05 05:27:00,46.1,-7.5,30.11,WNW,293,0.4,0.9,1,0.00,,,0.00,WUHU216HW,2013-06-05 09:27:00,
2013-06-05 05:32:00,46.1,-7.5,30.11,WNW,293,0.0,0.7,1,0.00,,,0.00,WUHU216HW,2013-06-05 09:32:00,
2013-06-05 05:37:00,46.1,-7.5,30.11,WNW,293,0.7,0.7,1,0.00,,,0.00,WUHU216HW,2013-06-05 09:37:00,
2013-06-05 05:42:00,46.3,-7.4,30.11,WNW,293,0.0,0.7,1,0.00,,,0.00,WUHU216HW,2013-06-05 09:42:00,
2013-06-05 05:47:00,46.3,-7.4,30.11,WNW,293,0.2,0.7,1,0.00,,,0.00,WUHU216HW,2013-06-05 09:47:00,
2013-06-05 05:52:00,46.3,-7.4,30.12,WSW,248,0.0,0.7,1,0.00,,,0.00,WUHU216HW,2013-06-05 09:52:00,
2013-06-05 05:57:00,46.3,-7.4,30.11,WSW,248,0.0,0.4,1,0.00,,,0.00,WUHU216HW,2013-06-05 09:57:00,
2013-06-05 06:02:00,46.4,-7.2,30.12,WSW,248,0.0,0.4,1,0.00,,,0.00,WUHU216HW,2013-06-05 10:02:00,
2013-06-05 06:07:00,46.4,-7.2,30.12,WSW,248,0.4,0.9,1,0.00,,,0.00,WUHU216HW,2013-06-05 10:07:00,
2013-06-05 06:12:00,46.6,-7.0,30.12,WSW,248,0.0,0.9,1,0.00,,,0.00,WUHU216HW,2013-06-05 10:12:00,
2013-06-05 06:17:00,46.8,-6.9,30.12,WSW,248,0.0,0.4,1,0.00,,,0.00,WUHU216HW,2013-06-05 10:17:00,
2013-06-05 06:22:00,47.2,-6.7,30.11,WSW,248,0.0,0.4,1,0.00,,,0.00,WUHU216HW,2013-06-05 10:22:00,
2013-06-05 06:27:00,47.3,-6.5,30.12,WSW,248,0.0,0.0,1,0.00,,,0.00,WUHU216HW,2013-06-05 10:27:00,
2013-06-05 06:32:00,47.7,-6.2,30.12,WSW,248,0.0,0.2,1,0.00,,,0.00,WUHU216HW,2013-06-05 10:32:00,
2013-06-05 06:37:00,48.4,-5.7,30.12,WNW,293,2.0,2.0,1,0.00,,,0.00,WUHU216HW,2013-06-05 10:37:00,
2013-06-05 06:42:00,49.1,-5.1,30.12,NW,315,2.5,3.4,1,0.00,,,0.00,WUHU216HW,2013-06-05 10:42:00,
2013-06-05 06:47:00,50.0,-4.5,30.13,WSW,248,0.7,3.4,1,0.00,,,0.00,WUHU216HW,2013-06-05 10:47:00,
2013-06-05 06:52:00,50.8,-4.0,30.13,NW,315,0.7,2.9,1,0.00,,,0.00,WUHU216HW,2013-06-05 10:52:00,
2013-06-05 06:57:00,51.1,-3.6,30.13,WNW,293,2.9,3.4,1,0.00,,,0.00,WUHU216HW,2013-06-05 10:57:00,
2013-06-05 07:02:00,51.3,-3.5,30.13,WSW,248,0.4,3.4,1,0.00,,,0.00,WUHU216HW,2013-06-05 11:02:00,
2013-06-05 07:07:00,51.5,-3.3,30.13,SSW,203,0.4,4.3,1,0.00,,,0.00,WUHU216HW,2013-06-05 11:07:00,
2013-06-05 07:12:00,51.8,-3.1,30.13,South,180,0.4,4.3,1,0.00,,,0.00,WUHU216HW,2013-06-05 11:12:00,
2013-06-05 07:17:00,52.0,-2.9,30.14,WNW,293,0.2,1.8,1,0.00,,,0.00,WUHU216HW,2013-06-05 11:17:00,
2013-06-05 07:22:00,52.4,-2.6,30.13,SSE,158,1.1,2.0,1,0.00,,,0.00,WUHU216HW,2013-06-05 11:22:00,
2013-06-05 07:27:00,52.9,-2.1,30.14,WSW,248,0.2,2.0,1,0.00,,,0.00,WUHU216HW,2013-06-05 11:27:00,
2013-06-05 07:32:00,53.5,-1.8,30.14,WNW,293,1.6,2.7,1,0.00,,,0.00,WUHU216HW,2013-06-05 11:32:00,
2013-06-05 07:37:00,54.0,-1.3,30.14,WSW,248,1.6,6.9,1,0.00,,,0.00,WUHU216HW,2013-06-05 11:37:00,
2013-06-05 07:42:00,54.5,-0.9,30.14,WNW,293,4.5,6.9,1,0.00,,,0.00,WUHU216HW,2013-06-05 11:42:00,
2013-06-05 07:47:00,55.1,-0.4,30.14,West,270,1.6,4.5,1,0.00,,,0.00,WUHU216HW,2013-06-05 11:47:00,
2013-06-05 07:52:00,55.8,0.1,30.14,NW,315,2.5,4.5,1,0.00,,,0.00,WUHU216HW,2013-06-05 11:52:00,
2013-06-05 07:57:00,56.2,0.4,30.15,NW,315,2.0,3.1,1,0.00,,,0.00,WUHU216HW,2013-06-05 11:57:00,
2013-06-05 08:02:00,56.5,0.5,30.15,NW,315,2.7,4.7,1,0.00,,,0.00,WUHU216HW,2013-06-05 12:02:00,
2013-06-05 08:07:00,56.9,0.8,30.14,NNW,338,3.8,6.9,1,0.00,,,0.00,WUHU216HW,2013-06-05 12:07:00,
2013-06-05 08:12:00,57.2,1.1,30.14,WNW,293,3.8,6.9,1,0.00,,,0.00,WUHU216HW,2013-06-05 12:12:00,
2013-06-05 08:17:00,57.4,1.3,30.14,NNW,338,1.6,6.0,1,0.00,,,0.00,WUHU216HW,2013-06-05 12:17:00,
2013-06-05 08:22:00,57.6,1.4,30.15,WSW,248,2.5,5.8,1,0.00,,,0.00,WUHU216HW,2013-06-05 12:22:00,
2013-06-05 08:27:00,58.1,1.8,30.15,NNW,338,1.8,4.7,1,0.00,,,0.00,WUHU216HW,2013-06-05 12:27:00,
2013-06-05 08:32:00,58.3,2.0,30.15,NW,315,4.9,4.9,1,0.00,,,0.00,WUHU216HW,2013-06-05 12:32:00,
2013-06-05 08:37:00,58.7,2.3,30.15,WSW,248,1.1,4.9,1,0.00,,,0.00,WUHU216HW,2013-06-05 12:37:00,
2013-06-05 08:42:00,59.0,2.5,30.15,WNW,293,7.4,7.4,1,0.00,,,0.00,WUHU216HW,2013-06-05 12:42:00,
2013-06-05 08:47:00,59.4,2.8,30.15,NNW,338,6.3,7.4,1,0.00,,,0.00,WUHU216HW,2013-06-05 12:47:00,
2013-06-05 08:52:00,59.8,3.1,30.15,WNW,293,1.6,7.4,1,0.00,,,0.00,WUHU216HW,2013-06-05 12:52:00,
2013-06-05 08:57:00,60.1,3.4,30.15,North,0,3.4,6.3,1,0.00,,,0.00,WUHU216HW,2013-06-05 12:57:00,
2013-06-05 09:02:00,60.1,3.4,30.16,West,270,4.0,4.0,1,0.00,,,0.00,WUHU216HW,2013-06-05 13:02:00,
2013-06-05 09:07:00,60.3,3.5,30.16,West,270,2.2,5.1,1,0.00,,,0.00,WUHU216HW,2013-06-05 13:07:00,
2013-06-05 09:12:00,60.5,3.7,30.16,SW,225,1.8,5.1,1,0.00,,,0.00,WUHU216HW,2013-06-05 13:12:00,
2013-06-05 09:17:00,60.8,4.0,30.15,NNW,338,2.0,4.0,1,0.00,,,0.00,WUHU216HW,2013-06-05 13:17:00,
2013-06-05 09:22:00,61.0,4.2,30.16,NNW,338,4.0,4.9,1,0.00,,,0.00,WUHU216HW,2013-06-05 13:22:00,
2013-06-05 09:27:00,61.4,4.4,30.16,West,270,1.3,7.2,2,0.00,,,0.00,WUHU216HW,2013-06-05 13:27:00,
2013-06-05 09:32:00,61.7,4.7,30.16,NNW,338,3.4,7.2,1,0.00,,,0.00,WUHU216HW,2013-06-05 13:32:00,
2013-06-05 09:37:00,62.8,5.5,30.16,WSW,248,6.3,6.3,5,0.00,,,0.00,WUHU216HW,2013-06-05 13:37:00,
2013-06-05 09:42:00,64.3,9.7,30.16,NW,315,6.9,10.5,12,0.00,,,0.00,WUHU216HW,2013-06-05 13:42:00,
2013-06-05 09:47:00,65.3,12.2,30.15,SSW,203,2.2,10.5,13,0.00,,,0.00,WUHU216HW,2013-06-05 13:47:00,
2013-06-05 09:52:00,65.9,29.7,30.15,WNW,293,5.6,6.9,26,0.00,,,0.00,WUHU216HW,2013-06-05 13:52:00,
2013-06-05 09:57:00,67.3,27.9,30.15,WNW,293,3.4,5.6,23,0.00,,,0.00,WUHU216HW,2013-06-05 13:57:00,
2013-06-05 10:03:00,67.9,32.3,30.15,WNW,293,4.9,6.0,27,0.00,,,0.00,WUHU216HW,2013-06-05 14:03:00,
2013-06-05 10:07:00,68.4,35.8,30.16,WSW,248,6.9,6.9,30,0.00,,,0.00,WUHU216HW,2013-06-05 14:07:00,
2013-06-05 10:13:00,68.4,34.8,30.15,West,270,0.4,7.6,29,0.00,,,0.00,WUHU216HW,2013-06-05 14:13:00,
2013-06-05 10:18:00,68.6,34.9,30.15,West,270,4.3,8.1,29,0.00,,,0.00,WUHU216HW,2013-06-05 14:18:00,
2013-06-05 10:23:00,68.8,37.6,30.15,WSW,248,4.0,8.1,32,0.00,,,0.00,WUHU216HW,2013-06-05 14:23:00,
2013-06-05 10:28:00,69.1,37.2,30.15,WNW,293,1.1,7.8,31,0.00,,,0.00,WUHU216HW,2013-06-05 14:28:00,
2013-06-05 10:33:00,69.7,39.9,30.15,SW,225,7.2,7.2,34,0.00,,,0.00,WUHU216HW,2013-06-05 14:33:00,
2013-06-05 10:38:00,69.5,39.7,30.15,NW,315,7.6,7.6,34,0.00,,,0.00,WUHU216HW,2013-06-05 14:38:00,
2013-06-05 10:43:00,69.5,40.4,30.15,WSW,248,4.7,8.5,35,0.00,,,0.00,WUHU216HW,2013-06-05 14:43:00,
2013-06-05 10:48:00,69.7,39.9,30.15,West,270,3.6,8.5,34,0.00,,,0.00,WUHU216HW,2013-06-05 14:48:00,
2013-06-05 10:53:00,69.8,40.1,30.14,SE,135,1.8,7.6,34,0.00,,,0.00,WUHU216HW,2013-06-05 14:53:00,
2013-06-05 10:58:00,70.4,42.8,30.15,SW,225,4.3,11.0,37,0.00,,,0.00,WUHU216HW,2013-06-05 14:58:00,
2013-06-05 11:03:00,70.2,41.1,30.14,NW,315,8.7,11.6,35,0.00,,,0.00,WUHU216HW,2013-06-05 15:03:00,
2013-06-05 11:08:00,69.7,40.6,30.14,NNW,338,4.7,11.6,35,0.00,,,0.00,WUHU216HW,2013-06-05 15:08:00,
2013-06-05 11:13:00,70.0,41.0,30.14,WNW,293,4.5,9.4,35,0.00,,,0.00,WUHU216HW,2013-06-05 15:13:00,
2013-06-05 11:18:00,70.2,41.1,30.14,NNW,338,3.4,6.9,35,0.00,,,0.00,WUHU216HW,2013-06-05 15:18:00,
2013-06-05 11:23:00,70.4,41.2,30.14,NW,315,2.5,8.7,35,0.00,,,0.00,WUHU216HW,2013-06-05 15:23:00,
2013-06-05 11:28:00,70.2,41.1,30.14,West,270,2.5,8.7,35,0.00,,,0.00,WUHU216HW,2013-06-05 15:28:00,
2013-06-05 11:33:00,70.2,41.1,30.14,NNW,338,2.0,6.9,35,0.00,,,0.00,WUHU216HW,2013-06-05 15:33:00,
2013-06-05 11:38:00,70.2,41.1,30.14,WNW,293,1.1,5.1,35,0.00,,,0.00,WUHU216HW,2013-06-05 15:38:00,
2013-06-05 11:43:00,70.7,41.6,30.14,WSW,248,6.3,9.2,35,0.00,,,0.00,WUHU216HW,2013-06-05 15:43:00,
2013-06-05 11:48:00,71.3,42.9,30.14,WNW,293,4.7,9.2,36,0.00,,,0.00,WUHU216HW,2013-06-05 15:48:00,
2013-06-05 11:53:00,71.6,43.1,30.14,West,270,1.6,6.3,36,0.00,,,0.00,WUHU216HW,2013-06-05 15:53:00,
2013-06-05 11:58:00,71.6,42.4,30.14,West,270,6.0,6.0,35,0.00,,,0.00,WUHU216HW,2013-06-05 15:58:00,
2013-06-05 12:03:00,72.0,42.7,30.14,NNW,338,3.4,6.3,35,0.00,,,0.00,WUHU216HW,2013-06-05 16:03:00,
2013-06-05 12:08:00,71.8,42.6,30.13,SSW,203,2.5,6.3,35,0.00,,,0.00,WUHU216HW,2013-06-05 16:08:00,
2013-06-05 12:13:00,71.3,42.0,30.13,NW,315,4.7,6.0,35,0.00,,,0.00,WUHU216HW,2013-06-05 16:13:00,
2013-06-05 12:18:00,71.3,42.0,30.13,West,270,4.3,7.4,35,0.00,,,0.00,WUHU216HW,2013-06-05 16:18:00,
2013-06-05 12:23:00,71.3,42.0,30.13,NW,315,1.8,7.4,35,0.00,,,0.00,WUHU216HW,2013-06-05 16:23:00,
2013-06-05 12:28:00,71.6,42.4,30.13,West,270,6.9,7.8,35,0.00,,,0.00,WUHU216HW,2013-06-05 16:28:00,
2013-06-05 12:33:00,71.6,42.4,30.13,West,270,5.1,7.8,35,0.00,,,0.00,WUHU216HW,2013-06-05 16:33:00,
2013-06-05 12:38:00,71.6,42.4,30.13,North,0,3.8,6.9,35,0.00,,,0.00,WUHU216HW,2013-06-05 16:38:00,
2013-06-05 12:43:00,71.6,42.4,30.13,WNW,293,3.1,6.3,35,0.00,,,0.00,WUHU216HW,2013-06-05 16:43:00,
2013-06-05 12:48:00,71.8,42.6,30.13,WNW,293,6.7,8.5,35,0.00,,,0.00,WUHU216HW,2013-06-05 16:48:00,
2013-06-05 12:53:00,71.8,42.6,30.13,NW,315,2.0,8.5,35,0.00,,,0.00,WUHU216HW,2013-06-05 16:53:00,
2013-06-05 12:58:00,71.8,41.0,30.13,SSW,203,0.9,6.7,33,0.00,,,0.00,WUHU216HW,2013-06-05 16:58:00,
2013-06-05 13:03:00,72.0,42.7,30.12,WNW,293,2.7,5.6,35,0.00,,,0.00,WUHU216HW,2013-06-05 17:03:00,
2013-06-05 13:08:00,71.6,42.4,30.12,WSW,248,1.6,5.6,35,0.00,,,0.00,WUHU216HW,2013-06-05 17:08:00,
2013-06-05 13:13:00,71.6,42.4,30.12,West,270,3.1,6.3,35,0.00,,,0.00,WUHU216HW,2013-06-05 17:13:00,
2013-06-05 13:18:00,71.8,43.3,30.12,SSW,203,3.1,6.3,36,0.00,,,0.00,WUHU216HW,2013-06-05 17:18:00,
2013-06-05 13:23:00,72.4,43.0,30.12,ENE,68,2.2,4.0,35,0.00,,,0.00,WUHU216HW,2013-06-05 17:23:00,
2013-06-05 13:28:00,72.5,43.1,30.12,WNW,293,4.5,7.6,35,0.00,,,0.00,WUHU216HW,2013-06-05 17:28:00,
2013-06-05 13:33:00,72.5,42.4,30.12,WNW,293,4.7,7.6,34,0.00,,,0.00,WUHU216HW,2013-06-05 17:33:00,
2013-06-05 13:38:00,72.5,41.0,30.11,NNW,338,6.0,6.0,32,0.00,,,0.00,WUHU216HW,2013-06-05 17:38:00,
2013-06-05 13:43:00,72.7,42.6,30.11,WNW,293,5.6,6.0,34,0.00,,,0.00,WUHU216HW,2013-06-05 17:43:00,
2013-06-05 13:48:00,72.4,40.8,30.11,WNW,293,1.8,7.6,32,0.00,,,0.00,WUHU216HW,2013-06-05 17:48:00,
2013-06-05 13:53:00,72.7,41.9,30.11,West,270,6.3,7.6,33,0.00,,,0.00,WUHU216HW,2013-06-05 17:53:00,
2013-06-05 13:58:00,72.9,42.8,30.11,WNW,293,2.7,6.3,34,0.00,,,0.00,WUHU216HW,2013-06-05 17:58:00,
2013-06-05 14:03:00,73.8,44.3,30.11,SW,225,1.3,6.3,35,0.00,,,0.00,WUHU216HW,2013-06-05 18:03:00,
2013-06-05 14:08:00,74.3,44.0,30.11,WSW,248,3.4,3.8,34,0.00,,,0.00,WUHU216HW,2013-06-05 18:08:00,
2013-06-05 14:13:00,74.5,43.4,30.11,East,90,1.6,3.8,33,0.00,,,0.00,WUHU216HW,2013-06-05 18:13:00,
2013-06-05 14:18:00,74.3,41.7,30.11,NW,315,5.8,5.8,31,0.00,,,0.00,WUHU216HW,2013-06-05 18:18:00,
2013-06-05 14:23:00,74.2,43.0,30.11,WSW,248,1.8,6.3,33,0.00,,,0.00,WUHU216HW,2013-06-05 18:23:00,
2013-06-05 14:28:00,74.3,43.2,30.10,North,0,2.2,6.3,33,0.00,,,0.00,WUHU216HW,2013-06-05 18:28:00,
2013-06-05 14:33:00,74.5,43.4,30.10,WSW,248,2.2,4.3,33,0.00,,,0.00,WUHU216HW,2013-06-05 18:33:00,
2013-06-05 14:38:00,74.9,43.8,30.10,East,90,1.8,5.1,33,0.00,,,0.00,WUHU216HW,2013-06-05 18:38:00,
2013-06-05 14:43:00,75.1,44.7,30.10,WSW,248,2.5,5.1,34,0.00,,,0.00,WUHU216HW,2013-06-05 18:43:00,
2013-06-05 14:48:00,74.9,42.9,30.10,SSE,158,1.1,9.4,32,0.00,,,0.00,WUHU216HW,2013-06-05 18:48:00,
2013-06-05 14:53:00,75.1,43.8,30.09,SSE,158,4.9,9.4,33,0.00,,,0.00,WUHU216HW,2013-06-05 18:53:00,
2013-06-05 14:58:00,75.1,43.1,30.09,NW,315,3.1,6.9,32,0.00,,,0.00,WUHU216HW,2013-06-05 18:58:00,
2013-06-05 15:03:00,74.9,42.9,30.08,West,270,4.0,6.9,32,0.00,,,0.00,WUHU216HW,2013-06-05 19:03:00,
2013-06-05 15:08:00,75.1,43.1,30.08,NNW,338,1.3,6.9,32,0.00,,,0.00,WUHU216HW,2013-06-05 19:08:00,
2013-06-05 15:13:00,75.2,43.3,30.08,NNW,338,2.7,6.9,32,0.00,,,0.00,WUHU216HW,2013-06-05 19:13:00,
2013-06-05 15:18:00,75.4,43.5,30.08,NW,315,6.0,6.0,32,0.00,,,0.00,WUHU216HW,2013-06-05 19:18:00,
2013-06-05 15:23:00,75.6,42.8,30.08,NNE,23,0.7,6.0,31,0.00,,,0.00,WUHU216HW,2013-06-05 19:23:00,
2013-06-05 15:28:00,75.8,43.0,30.08,NW,315,8.3,8.3,31,0.00,,,0.00,WUHU216HW,2013-06-05 19:28:00,
2013-06-05 15:33:00,75.8,43.7,30.08,WSW,248,3.1,8.3,32,0.00,,,0.00,WUHU216HW,2013-06-05 19:33:00,
2013-06-05 15:38:00,75.6,42.8,30.08,West,270,0.7,8.3,31,0.00,,,0.00,WUHU216HW,2013-06-05 19:38:00,
2013-06-05 15:43:00,75.6,43.6,30.08,West,270,4.7,7.4,32,0.00,,,0.00,WUHU216HW,2013-06-05 19:43:00,
2013-06-05 15:48:00,75.8,43.7,30.08,NW,315,1.1,7.4,32,0.00,,,0.00,WUHU216HW,2013-06-05 19:48:00,
2013-06-05 15:53:00,76.1,44.8,30.08,SSW,203,1.3,5.8,33,0.00,,,0.00,WUHU216HW,2013-06-05 19:53:00,
2013-06-05 15:58:00,76.5,45.9,30.08,SSE,158,0.9,4.7,34,0.00,,,0.00,WUHU216HW,2013-06-05 19:58:00,
2013-06-05 16:03:00,76.5,44.4,30.08,WSW,248,2.5,5.1,32,0.00,,,0.00,WUHU216HW,2013-06-05 20:03:00,
2013-06-05 16:08:00,76.1,44.8,30.08,SW,225,0.4,5.1,33,0.00,,,0.00,WUHU216HW,2013-06-05 20:08:00,
2013-06-05 16:13:00,76.5,45.2,30.07,NW,315,3.4,3.4,33,0.00,,,0.00,WUHU216HW,2013-06-05 20:13:00,
2013-06-05 16:18:00,76.3,45.0,30.07,NE,45,0.4,3.4,33,0.00,,,0.00,WUHU216HW,2013-06-05 20:18:00,
2013-06-05 16:23:00,76.3,45.0,30.07,ESE,113,1.8,4.5,33,0.00,,,0.00,WUHU216HW,2013-06-05 20:23:00,
2013-06-05 16:28:00,76.3,44.3,30.07,NW,315,2.7,6.7,32,0.00,,,0.00,WUHU216HW,2013-06-05 20:28:00,
2013-06-05 16:33:00,76.5,45.2,30.07,SW,225,2.5,6.7,33,0.00,,,0.00,WUHU216HW,2013-06-05 20:33:00,
2013-06-05 16:38:00,76.5,44.4,30.07,West,270,1.8,5.1,32,0.00,,,0.00,WUHU216HW,2013-06-05 20:38:00,
2013-06-05 16:42:00,76.0,43.9,30.07,WSW,248,2.2,6.3,32,0.00,,,0.00,WUHU216HW,2013-06-05 20:42:00,
2013-06-05 16:47:00,76.0,44.6,30.07,North,0,0.4,6.3,33,0.00,,,0.00,WUHU216HW,2013-06-05 20:47:00,
2013-06-05 16:52:00,76.0,45.5,30.06,South,180,1.1,4.0,34,0.00,,,0.00,WUHU216HW,2013-06-05 20:52:00,
2013-06-05 16:57:00,76.1,45.6,30.06,West,270,0.2,3.4,34,0.00,,,0.00,WUHU216HW,2013-06-05 20:57:00,
2013-06-05 17:02:00,76.5,45.2,30.06,West,270,1.8,3.4,33,0.00,,,0.00,WUHU216HW,2013-06-05 21:02:00,
2013-06-05 17:07:00,77.0,46.5,30.06,SSE,158,1.8,2.5,34,0.00,,,0.00,WUHU216HW,2013-06-05 21:07:00,
2013-06-05 17:12:00,77.4,45.2,30.06,SSE,158,1.1,4.5,32,0.00,,,0.00,WUHU216HW,2013-06-05 21:12:00,
2013-06-05 17:17:00,77.4,46.7,30.06,SSW,203,1.3,4.5,34,0.00,,,0.00,WUHU216HW,2013-06-05 21:17:00,
2013-06-05 17:22:00,77.4,46.7,30.06,WSW,248,0.4,2.9,34,0.00,,,0.00,WUHU216HW,2013-06-05 21:22:00,
2013-06-05 17:27:00,77.4,46.7,30.06,SW,225,4.0,4.0,34,0.00,,,0.00,WUHU216HW,2013-06-05 21:27:00,
2013-06-05 17:32:00,77.8,47.0,30.05,SSE,158,1.8,4.0,34,0.00,,,0.00,WUHU216HW,2013-06-05 21:32:00,
2013-06-05 17:37:00,77.6,46.1,30.05,WSW,248,1.1,4.0,33,0.00,,,0.00,WUHU216HW,2013-06-05 21:37:00,
2013-06-05 17:42:00,77.4,46.7,30.05,SE,135,1.1,2.7,34,0.00,,,0.00,WUHU216HW,2013-06-05 21:42:00,
2013-06-05 17:47:00,77.6,46.9,30.06,SSE,158,2.5,2.7,34,0.00,,,0.00,WUHU216HW,2013-06-05 21:47:00,
2013-06-05 17:52:00,77.4,47.4,30.06,ESE,113,3.1,3.1,35,0.00,,,0.00,WUHU216HW,2013-06-05 21:52:00,
2013-06-05 17:57:00,76.7,48.3,30.06,SE,135,4.5,4.5,37,0.00,,,0.00,WUHU216HW,2013-06-05 21:57:00,
2013-06-05 18:02:00,74.9,47.5,30.06,SE,135,2.7,8.1,38,0.00,,,0.00,WUHU216HW,2013-06-05 22:02:00,
2013-06-05 18:07:00,73.8,46.5,30.06,WSW,248,1.3,8.1,38,0.00,,,0.00,WUHU216HW,2013-06-05 22:07:00,
2013-06-05 18:12:00,72.7,45.5,30.07,South,180,1.8,4.3,38,0.00,,,0.00,WUHU216HW,2013-06-05 22:12:00,
2013-06-05 18:17:00,72.4,44.5,30.07,SE,135,5.4,5.4,37,0.00,,,0.00,WUHU216HW,2013-06-05 22:17:00,
2013-06-05 18:22:00,72.0,44.2,30.07,ESE,113,7.8,7.8,37,0.00,,,0.00,WUHU216HW,2013-06-05 22:22:00,
2013-06-05 18:27:00,71.3,43.6,30.07,SE,135,6.0,7.8,37,0.00,,,0.00,WUHU216HW,2013-06-05 22:27:00,
2013-06-05 18:32:00,70.6,42.9,30.07,ESE,113,4.7,8.5,37,0.00,,,0.00,WUHU216HW,2013-06-05 22:32:00,
2013-06-05 18:37:00,69.8,42.2,30.07,East,90,3.6,8.5,37,0.00,,,0.00,WUHU216HW,2013-06-05 22:37:00,
2013-06-05 18:42:00,69.1,40.2,30.07,South,180,2.2,6.3,35,0.00,,,0.00,WUHU216HW,2013-06-05 22:42:00,
2013-06-05 18:47:00,68.8,39.8,30.07,SE,135,5.4,6.3,35,0.00,,,0.00,WUHU216HW,2013-06-05 22:47:00,
2013-06-05 18:52:00,68.4,39.5,30.07,SE,135,4.5,8.3,35,0.00,,,0.00,WUHU216HW,2013-06-05 22:52:00,
2013-06-05 18:57:00,67.7,39.6,30.08,SE,135,4.0,8.3,36,0.00,,,0.00,WUHU216HW,2013-06-05 22:57:00,
2013-06-05 19:02:00,67.0,37.5,30.08,ESE,113,4.0,5.1,34,0.00,,,0.00,WUHU216HW,2013-06-05 23:02:00,
2013-06-05 19:07:00,66.4,37.1,30.08,SSE,158,3.4,4.0,34,0.00,,,0.00,WUHU216HW,2013-06-05 23:07:00,
2013-06-05 19:12:00,66.1,36.7,30.09,ESE,113,3.1,4.0,34,0.00,,,0.00,WUHU216HW,2013-06-05 23:12:00,
2013-06-05 19:17:00,65.9,36.5,30.09,ESE,113,1.8,3.4,34,0.00,,,0.00,WUHU216HW,2013-06-05 23:17:00,
2013-06-05 19:22:00,65.7,35.7,30.09,ESE,113,1.3,3.1,33,0.00,,,0.00,WUHU216HW,2013-06-05 23:22:00,
2013-06-05 19:27:00,65.3,34.7,30.09,SE,135,1.3,2.2,32,0.00,,,0.00,WUHU216HW,2013-06-05 23:27:00,
2013-06-05 19:32:00,65.0,34.3,30.09,ESE,113,1.8,3.6,32,0.00,,,0.00,WUHU216HW,2013-06-05 23:32:00,
2013-06-05 19:37:00,64.6,32.6,30.09,SE,135,1.6,3.6,30,0.00,,,0.00,WUHU216HW,2013-06-05 23:37:00,
2013-06-05 19:42:00,64.3,32.2,30.09,SE,135,1.6,4.0,30,0.00,,,0.00,WUHU216HW,2013-06-05 23:42:00,
2013-06-05 19:47:00,64.1,30.1,30.09,SE,135,1.6,4.0,28,0.00,,,0.00,WUHU216HW,2013-06-05 23:47:00,
2013-06-05 19:52:00,63.9,29.0,30.08,ESE,113,2.7,2.7,27,0.00,,,0.00,WUHU216HW,2013-06-05 23:52:00,
2013-06-05 19:57:00,63.4,26.6,30.09,SE,135,0.9,2.7,25,0.00,,,0.00,WUHU216HW,2013-06-05 23:57:00,
2013-06-05 20:02:00,63.0,24.3,30.09,ESE,113,2.0,2.7,23,0.00,,,0.00,WUHU216HW,2013-06-06 00:02:00,
2013-06-05 20:07:00,62.6,22.1,30.09,ESE,113,1.1,2.0,21,0.00,,,0.00,WUHU216HW,2013-06-06 00:07:00,
2013-06-05 20:12:00,62.3,14.5,30.09,SE,135,1.3,2.0,16,0.00,,,0.00,WUHU216HW,2013-06-06 00:12:00,
2013-06-05 20:17:00,61.9,9.6,30.09,ESE,113,0.4,1.8,13,0.00,,,0.00,WUHU216HW,2013-06-06 00:17:00,
2013-06-05 20:22:00,61.6,7.7,30.09,ESE,113,1.1,1.8,12,0.00,,,0.00,WUHU216HW,2013-06-06 00:22:00,
2013-06-05 20:27:00,61.0,4.2,30.08,SE,135,1.8,1.8,8,0.00,,,0.00,WUHU216HW,2013-06-06 00:27:00,
2013-06-05 20:32:00,60.7,3.8,30.08,SE,135,1.1,1.8,6,0.00,,,0.00,WUHU216HW,2013-06-06 00:32:00,
2013-06-05 20:37:00,60.1,3.4,30.08,East,90,0.0,2.0,2,0.00,,,0.00,WUHU216HW,2013-06-06 00:37:00,
2013-06-05 20:42:00,59.6,3.0,30.08,East,90,0.0,2.0,1,0.00,,,0.00,WUHU216HW,2013-06-06 00:42:00,
2013-06-05 20:47:00,59.4,2.8,30.08,East,90,0.4,0.4,1,0.00,,,0.00,WUHU216HW,2013-06-06 00:47:00,
2013-06-05 20:52:00,59.0,2.5,30.09,ESE,113,0.0,0.4,1,0.00,,,0.00,WUHU216HW,2013-06-06 00:52:00,
2013-06-05 20:57:00,58.7,2.3,30.10,ESE,113,0.0,0.4,1,0.00,,,0.00,WUHU216HW,2013-06-06 00:57:00,
2013-06-05 21:02:00,58.3,2.0,30.09,ESE,113,0.0,0.0,1,0.00,,,0.00,WUHU216HW,2013-06-06 01:02:00,
2013-06-05 21:07:00,58.1,1.8,30.10,ESE,113,0.0,0.0,1,0.00,,,0.00,WUHU216HW,2013-06-06 01:07:00,
2013-06-05 21:12:00,58.0,1.6,30.10,ESE,113,0.0,0.0,1,0.00,,,0.00,WUHU216HW,2013-06-06 01:12:00,
2013-06-05 21:17:00,57.8,1.5,30.10,WSW,248,0.0,0.0,1,0.00,,,0.00,WUHU216HW,2013-06-06 01:17:00,
2013-06-05 21:22:00,57.6,1.4,30.10,WSW,248,0.0,0.2,1,0.00,,,0.00,WUHU216HW,2013-06-06 01:22:00,
2013-06-05 21:27:00,57.4,1.3,30.10,WSW,248,0.0,0.2,1,0.00,,,0.00,WUHU216HW,2013-06-06 01:27:00,
2013-06-05 21:32:00,57.2,1.1,30.10,WNW,293,0.0,0.7,1,0.00,,,0.00,WUHU216HW,2013-06-06 01:32:00,
2013-06-05 21:37:00,57.2,1.1,30.10,WNW,293,0.0,0.7,1,0.00,,,0.00,WUHU216HW,2013-06-06 01:37:00,
2013-06-05 21:42:00,56.9,0.8,30.11,WNW,293,0.0,0.0,1,0.00,,,0.00,WUHU216HW,2013-06-06 01:42:00,
2013-06-05 21:47:00,56.9,0.8,30.11,WNW,293,0.4,0.4,1,0.00,,,0.00,WUHU216HW,2013-06-06 01:47:00,
2013-06-05 21:52:00,56.5,0.5,30.11,WNW,293,0.4,0.9,1,0.00,,,0.00,WUHU216HW,2013-06-06 01:52:00,
2013-06-05 21:57:00,56.5,0.5,30.11,WNW,293,0.2,0.9,1,0.00,,,0.00,WUHU216HW,2013-06-06 01:57:00,
2013-06-05 22:02:00,56.5,0.5,30.11,NW,315,0.9,1.1,1,0.00,,,0.00,WUHU216HW,2013-06-06 02:02:00,
2013-06-05 22:07:00,56.5,0.5,30.11,West,270,0.0,1.1,1,0.00,,,0.00,WUHU216HW,2013-06-06 02:07:00,
2013-06-05 22:12:00,56.5,0.5,30.11,West,270,0.7,1.3,1,0.00,,,0.00,WUHU216HW,2013-06-06 02:12:00,
2013-06-05 22:17:00,56.7,0.7,30.11,NW,315,1.3,1.3,1,0.00,,,0.00,WUHU216HW,2013-06-06 02:17:00,
2013-06-05 22:22:00,56.7,0.7,30.11,WNW,293,0.2,1.3,1,0.00,,,0.00,WUHU216HW,2013-06-06 02:22:00,
2013-06-05 22:27:00,56.5,0.5,30.12,NNE,23,0.0,1.3,1,0.00,,,0.00,WUHU216HW,2013-06-06 02:27:00,
2013-06-05 22:32:00,56.5,0.5,30.12,WNW,293,1.1,1.6,1,0.00,,,0.00,WUHU216HW,2013-06-06 02:32:00,
2013-06-05 22:37:00,56.2,0.4,30.12,NW,315,0.4,1.6,1,0.00,,,0.00,WUHU216HW,2013-06-06 02:37:00,
2013-06-05 22:42:00,56.0,0.2,30.12,West,270,0.0,1.1,1,0.00,,,0.00,WUHU216HW,2013-06-06 02:42:00,
2013-06-05 22:47:00,55.8,0.1,30.11,SSW,203,0.4,1.1,1,0.00,,,0.00,WUHU216HW,2013-06-06 02:47:00,
2013-06-05 22:52:00,55.4,-0.2,30.12,West,270,1.6,3.6,1,0.00,,,0.00,WUHU216HW,2013-06-06 02:52:00,
2013-06-05 22:57:00,55.3,-0.4,30.12,WSW,248,0.0,3.6,1,0.00,,,0.00,WUHU216HW,2013-06-06 02:57:00,
2013-06-05 23:02:00,55.1,-0.4,30.12,WSW,248,0.4,1.6,1,0.00,,,0.00,WUHU216HW,2013-06-06 03:02:00,
2013-06-05 23:07:00,55.1,-0.4,30.12,WNW,293,0.0,1.1,1,0.00,,,0.00,WUHU216HW,2013-06-06 03:07:00,
2013-06-05 23:12:00,54.9,-0.6,30.12,West,270,0.2,0.9,1,0.00,,,0.00,WUHU216HW,2013-06-06 03:12:00,
2013-06-05 23:17:00,54.7,-0.7,30.12,WNW,293,1.3,1.8,1,0.00,,,0.00,WUHU216HW,2013-06-06 03:17:00,
2013-06-05 23:22:00,54.7,-0.7,30.12,WSW,248,0.2,1.8,1,0.00,,,0.00,WUHU216HW,2013-06-06 03:22:00,
2013-06-05 23:27:00,54.7,-0.7,30.12,NW,315,1.1,1.3,1,0.00,,,0.00,WUHU216HW,2013-06-06 03:27:00,
2013-06-05 23:32:00,54.5,-0.9,30.12,WNW,293,1.1,1.3,1,0.00,,,0.00,WUHU216HW,2013-06-06 03:32:00,
2013-06-05 23:37:00,54.5,-0.9,30.12,WNW,293,0.4,1.1,1,0.00,,,0.00,WUHU216HW,2013-06-06 03:37:00,
2013-06-05 23:42:00,54.4,-1.1,30.12,West,270,0.0,1.1,1,0.00,,,0.00,WUHU216HW,2013-06-06 03:42:00,
2013-06-05 23:47:00,54.2,-1.2,30.12,ESE,113,1.1,1.1,1,0.00,,,0.00,WUHU216HW,2013-06-06 03:47:00,
2013-06-05 23:52:00,54.0,-1.3,30.12,SE,135,1.8,1.8,1,0.00,,,0.00,WUHU216HW,2013-06-06 03:52:00,
2013-06-05 23:57:00,53.8,-1.4,30.12,SE,135,1.1,2.5,1,0.00,,,0.00,WUHU216HW,2013-06-06 03:57:00,